Time;durP1;ratioP1;P1;durP2;ratioP2;P2;SDS_P1;SDS_P2;PMS_P1;PMS_P2;Temp;Humidity;BMP_temperature;BMP_pressure;BME280_temperature;BME280_humidity;BME280_pressure;Samples;Min_cycle;Max_cycle;Signal;HPM_P1;HPM_P2
2022/04/20 00:16:49;;;;;;;;;;;;;;;;;;;;;
2022/04/20 00:26:55;;;;;;;2.17;1.65;;;10.00;49.90;;;;;;6094062;23;20009;-86
2022/04/20 00:29:42;;;;;;;5.47;1.90;;;10.00;50.10;;;;;;6089968;23;20006;-87
2022/04/20 00:42:54;;;;;;;4.57;2.00;;;9.70;50.30;;;;;;6152608;23;20012;-88
2022/04/20 00:45:45;;;;;;;3.55;1.98;;;9.60;50.20;;;;;;6238581;22;20001;-87
2022/04/20 00:49:06;;;;;;;;;;;;;;;;;;;;;
2022/04/20 01:04:46;;;;;;;;;;;9.40;50.70;;;;;;6247985;23;20078;-86
2022/04/20 01:07:18;;;;;;;4.03;1.70;;;9.50;50.80;;;;;;6247614;23;19907;-85
2022/04/20 01:10:17;;;;;;;4.10;1.92;;;9.40;50.90;;;;;;6190998;23;20030;-88
2022/04/20 01:42:40;;;;;;;6.85;1.88;;;8.90;52.00;;;;;;6256359;22;20043;-88
2022/04/20 02:06:22;;;;;;;3.03;1.67;;;8.70;53.10;;;;;;6183411;23;20474;-87
2022/04/20 02:17:05;;;;;;;5.03;2.00;;;8.60;53.60;;;;;;6065763;23;20484;-88
2022/04/20 02:20:28;;;;;;;3.15;1.80;;;8.60;53.60;;;;;;6008819;23;20461;-88
2022/04/20 03:08:13;;;;;;;4.88;2.13;;;8.20;57.00;;;;;;6245406;23;20019;-87
2022/04/20 03:26:35;;;;;;;;;;;;;;;;;;;;;
2022/04/20 03:38:54;;;;;;;5.95;2.92;;;7.90;60.10;;;;;;6242486;22;20020;-89
2022/04/20 03:41:54;;;;;;;4.75;2.58;;;7.90;60.30;;;;;;6215883;23;20040;-87
2022/04/20 03:45:06;;;;;;;5.45;3.00;;;7.80;60.40;;;;;;6216345;23;20071;-86
2022/04/20 03:47:44;;;;;;;5.45;3.13;;;7.80;60.90;;;;;;6215379;23;20005;-87
2022/04/20 03:50:26;;;;;;;;;;;;;;;;;;;;;
2022/04/20 03:53:11;;;;;;;5.30;2.50;;;7.60;61.30;;;;;;6217914;23;20079;-88
2022/04/20 03:56:16;;;;;;;4.20;2.40;;;7.60;61.60;;;;;;6212278;23;19998;-87
2022/04/20 04:01:42;;;;;;;3.50;2.83;;;7.60;61.80;;;;;;6242590;22;20346;-89
2022/04/20 04:04:08;;;;;;;6.82;3.20;;;7.60;62.50;;;;;;6251010;23;20068;-88
2022/04/20 04:06:33;;;;;;;6.35;3.50;;;7.60;61.80;;;;;;6248996;23;20107;-88
2022/04/20 04:08:59;;;;;;;5.13;2.60;;;7.50;61.60;;;;;;6245021;23;20004;-86
2022/04/20 04:11:25;;;;;;;11.50;2.97;;;7.60;61.60;;;;;;6244017;23;20383;-85
2022/04/20 04:13:50;;;;;;;5.03;2.63;;;7.50;61.80;;;;;;6244245;23;20027;-90
2022/04/20 04:16:16;;;;;;;8.10;2.75;;;7.50;61.70;;;;;;6244787;23;19996;-87
2022/04/20 04:18:41;;;;;;;2.28;2.10;;;7.50;61.90;;;;;;6246334;22;20418;-88
2022/04/20 04:21:07;;;;;;;6.53;3.08;;;7.50;62.00;;;;;;6245998;22;19999;-88
2022/04/20 04:23:32;;;;;;;3.33;2.45;;;7.40;61.90;;;;;;6244007;23;20006;-88
2022/04/20 04:25:58;;;;;;;5.88;3.20;;;7.40;62.30;;;;;;6244203;23;20087;-88
2022/04/20 04:28:23;;;;;;;2.72;2.50;;;7.40;62.40;;;;;;6244458;23;20004;-86
2022/04/20 04:30:49;;;;;;;5.03;2.65;;;7.30;62.50;;;;;;6242970;23;20008;-88
2022/04/20 04:33:15;;;;;;;3.75;2.65;;;7.40;62.30;;;;;;6243985;22;20011;-88
2022/04/20 04:35:40;;;;;;;5.45;2.78;;;7.30;62.20;;;;;;6245489;22;20133;-85
2022/04/20 04:38:06;;;;;;;4.75;2.50;;;7.30;62.50;;;;;;6245311;22;20348;-88
2022/04/20 04:40:31;;;;;;;3.92;2.92;;;7.30;62.20;;;;;;6244668;22;19992;-88
2022/04/20 04:42:57;;;;;;;4.97;2.42;;;7.30;62.80;;;;;;6244472;22;20031;-89
2022/04/20 04:50:51;;;;;;;5.40;2.38;;;7.40;61.60;;;;;;6250518;23;20472;-89
2022/04/20 04:53:17;;;;;;;9.40;2.75;;;7.40;62.00;;;;;;6251427;22;20028;-86
2022/04/20 04:55:43;;;;;;;4.95;2.47;;;7.40;61.60;;;;;;6249247;23;20075;-86
2022/04/20 04:58:08;;;;;;;3.83;2.38;;;7.50;61.40;;;;;;6250878;23;20008;-88
2022/04/20 05:00:34;;;;;;;7.38;2.42;;;7.50;62.10;;;;;;6248338;23;20015;-89
2022/04/20 05:02:59;;;;;;;8.27;2.60;;;7.50;61.40;;;;;;6260853;23;20004;-88
2022/04/20 05:05:25;;;;;;;3.08;2.38;;;7.60;61.40;;;;;;6264342;22;20019;-86
2022/04/20 05:07:54;;;;;;;4.25;1.98;;;7.60;61.00;;;;;;6260964;22;20030;-89
2022/04/20 05:10:23;;;;;;;4.25;2.38;;;7.60;61.10;;;;;;6262303;22;21093;-89
2022/04/20 05:12:48;;;;;;;4.57;2.55;;;7.60;61.00;;;;;;6252553;22;20020;-88
2022/04/20 05:15:14;;;;;;;4.20;2.47;;;7.60;60.90;;;;;;6247987;22;20000;-88
2022/04/20 05:17:40;;;;;;;4.78;2.20;;;7.70;60.90;;;;;;6248761;22;20103;-87
2022/04/20 05:20:07;;;;;;;3.20;2.25;;;7.70;60.70;;;;;;6248935;22;20174;-87
2022/04/20 05:22:32;;;;;;;6.32;2.97;;;7.80;60.60;;;;;;6246941;23;20004;-88
2022/04/20 05:24:58;;;;;;;3.15;2.45;;;7.90;60.70;;;;;;6248016;22;20019;-85
2022/04/20 05:27:26;;;;;;;2.50;1.88;;;7.90;60.70;;;;;;6245243;23;20004;-86
2022/04/20 05:29:52;;;;;;;3.08;2.05;;;7.90;60.40;;;;;;6247869;22;20015;-88
2022/04/20 05:32:18;;;;;;;4.90;2.13;;;8.00;60.10;;;;;;6255557;23;20123;-85
2022/04/20 05:34:43;;;;;;;3.17;2.45;;;8.00;60.20;;;;;;6251483;23;20453;-86
2022/04/20 05:42:37;;;;;;;2.40;2.13;;;8.20;59.80;;;;;;6258376;23;20019;-87
2022/04/20 05:45:03;;;;;;;6.43;2.70;;;8.30;59.90;;;;;;6261778;22;20012;-87
2022/04/20 05:47:29;;;;;;;3.33;2.40;;;8.30;59.20;;;;;;6269948;23;19996;-87
2022/04/20 05:49:55;;;;;;;3.50;2.25;;;8.40;59.50;;;;;;6266933;22;20004;-86
2022/04/20 05:52:20;;;;;;;5.10;1.90;;;8.40;59.10;;;;;;6265051;22;20222;-85
2022/04/20 05:54:46;;;;;;;4.82;2.10;;;8.50;58.90;;;;;;6264781;23;20011;-87
2022/04/20 05:57:12;;;;;;;5.68;2.22;;;8.60;59.30;;;;;;6264198;22;20051;-87
2022/04/20 05:59:37;;;;;;;3.50;2.30;;;8.70;59.30;;;;;;6262986;23;20443;-88
2022/04/20 06:02:03;;;;;;;4.35;2.03;;;8.70;58.70;;;;;;6262559;23;20019;-87
2022/04/20 06:04:30;;;;;;;5.50;2.28;;;8.80;58.50;;;;;;6264202;22;20004;-87
2022/04/20 06:06:56;;;;;;;4.90;1.90;;;8.90;58.20;;;;;;6263972;22;19997;-87
2022/04/20 06:09:21;;;;;;;2.55;2.25;;;9.00;58.10;;;;;;6263868;22;20010;-89
2022/04/20 06:11:48;;;;;;;5.85;2.70;;;9.00;58.30;;;;;;6262050;23;20001;-88
2022/04/20 06:14:13;;;;;;;2.45;2.17;;;9.00;57.50;;;;;;6262866;23;20004;-89
2022/04/20 06:16:39;;;;;;;5.68;2.50;;;9.00;57.10;;;;;;6262871;23;20068;-87
2022/04/20 06:19:04;;;;;;;4.40;2.40;;;9.20;56.90;;;;;;6264755;22;20000;-87
2022/04/20 06:21:30;;;;;;;3.60;2.50;;;9.20;56.20;;;;;;6262917;23;20027;-87
2022/04/20 06:23:56;;;;;;;3.22;2.30;;;9.20;56.20;;;;;;6264937;22;20027;-87
2022/04/20 06:26:22;;;;;;;2.40;1.88;;;9.40;55.80;;;;;;6263900;23;20004;-89
2022/04/20 06:28:51;;;;;;;4.97;2.30;;;9.50;55.30;;;;;;6262724;23;20225;-89
2022/04/20 06:31:16;;;;;;;3.63;2.40;;;9.60;54.80;;;;;;6263421;22;20472;-87
2022/04/20 06:33:42;;;;;;;5.95;2.00;;;9.50;54.80;;;;;;6263943;22;20091;-88
2022/04/20 06:36:07;;;;;;;4.78;2.30;;;9.50;54.30;;;;;;6262424;23;20027;-88
2022/04/20 06:38:33;;;;;;;6.00;2.22;;;9.60;54.30;;;;;;6264254;23;20056;-89
2022/04/20 06:40:58;;;;;;;5.75;2.13;;;9.70;53.00;;;;;;6258130;22;20064;-87
2022/04/20 06:43:25;;;;;;;4.22;1.80;;;9.70;53.20;;;;;;6258114;22;20004;-87
2022/04/20 06:45:50;;;;;;;4.55;2.10;;;9.60;52.30;;;;;;6257948;22;20339;-87
2022/04/20 06:48:16;;;;;;;3.72;2.15;;;9.70;53.10;;;;;;6257265;22;20008;-85
2022/04/20 06:50:43;;;;;;;4.35;1.65;;;9.80;52.60;;;;;;6259098;22;20014;-86
2022/04/20 06:58:39;;;;;;;2.70;2.25;;;9.80;52.80;;;;;;6257147;23;20011;-87
2022/04/20 07:01:07;;;;;;;3.88;2.05;;;9.80;52.90;;;;;;6254557;23;20008;-87
2022/04/20 07:03:33;;;;;;;5.28;2.20;;;9.70;52.50;;;;;;6258378;23;20075;-86
2022/04/20 07:06:00;;;;;;;2.63;2.20;;;9.80;52.50;;;;;;6259416;22;20007;-87
2022/04/20 07:08:26;;;;;;;3.67;2.50;;;9.70;52.30;;;;;;6258851;23;20023;-87
2022/04/20 07:10:53;;;;;;;4.80;1.98;;;9.90;51.90;;;;;;6256063;22;20422;-87
2022/04/20 07:13:27;;;;;;;4.45;2.55;;;9.90;50.70;;;;;;6256775;22;20004;-89
2022/04/20 07:15:53;;;;;;;4.40;2.15;;;10.10;50.50;;;;;;6253727;22;20000;-89
2022/04/20 07:18:19;;;;;;;4.88;2.00;;;10.10;50.50;;;;;;6257599;22;20014;-88
2022/04/20 07:21:02;;;;;;;4.22;2.20;;;10.10;50.50;;;;;;6252246;23;20022;-89
2022/04/20 07:23:46;;;;;;;3.78;2.15;;;10.00;50.00;;;;;;6252809;23;20012;-88
2022/04/20 07:29:33;;;;;;;3.30;1.77;;;10.20;49.50;;;;;;6255893;23;20060;-89
2022/04/20 07:32:02;;;;;;;3.17;1.83;;;10.40;49.80;;;;;;6257705;22;20004;-88
2022/04/20 07:34:36;;;;;;;3.05;1.73;;;10.40;49.70;;;;;;6257743;22;20011;-88
2022/04/20 07:37:07;;;;;;;4.97;2.13;;;10.60;49.50;;;;;;6258162;22;20004;-88
2022/04/20 07:39:38;;;;;;;3.50;2.20;;;10.70;49.30;;;;;;6261982;23;19980;-86
2022/04/20 07:42:53;;;;;;;4.15;2.30;;;10.80;48.80;;;;;;6257903;23;20064;-87
2022/04/20 07:45:19;;;;;;;3.08;2.00;;;10.70;49.20;;;;;;6238002;22;20045;-88
2022/04/20 07:48:09;;;;;;;4.50;1.80;;;10.80;48.40;;;;;;6256772;23;20400;-88
2022/04/20 07:51:17;;;;;;;3.07;1.97;;;11.00;47.20;;;;;;6261073;22;20000;-88
2022/04/20 07:53:51;;;;;;;2.63;2.10;;;11.10;47.40;;;;;;6160466;23;20013;-87
2022/04/20 07:56:26;;;;;;;3.60;1.90;;;11.10;47.20;;;;;;6238538;23;20000;-88
2022/04/20 07:59:00;;;;;;;2.90;1.85;;;11.30;46.50;;;;;;6253481;22;20023;-88
2022/04/20 08:01:57;;;;;;;6.10;2.20;;;11.30;46.70;;;;;;6247769;22;20015;-89
2022/04/20 08:04:28;;;;;;;3.25;2.08;;;11.30;45.70;;;;;;6249863;22;20000;-88
2022/04/20 08:06:53;;;;;;;3.42;2.17;;;11.20;45.50;;;;;;6251480;22;20035;-87
2022/04/20 08:09:26;;;;;;;4.82;2.08;;;11.30;45.50;;;;;;6248943;23;20430;-88
2022/04/20 08:11:59;;;;;;;5.35;2.97;;;11.40;45.90;;;;;;6248918;22;20438;-88
2022/04/20 08:14:28;;;;;;;3.08;1.80;;;11.40;46.10;;;;;;6246679;23;20008;-88
2022/04/20 08:16:59;;;;;;;4.18;2.05;;;11.60;46.10;;;;;;6247203;23;20434;-88
2022/04/20 08:19:27;;;;;;;2.45;1.85;;;11.70;44.80;;;;;;6246008;22;20271;-87
2022/04/20 08:21:53;;;;;;;3.05;2.13;;;11.70;44.80;;;;;;6244659;23;20004;-88
2022/04/20 08:24:28;;;;;;;2.83;2.30;;;11.80;44.50;;;;;;6246097;23;20499;-88
2022/04/20 08:27:04;;;;;;;5.35;1.83;;;11.70;45.30;;;;;;6248992;23;20011;-88
2022/04/20 08:29:32;;;;;;;6.07;1.98;;;11.70;45.20;;;;;;6248399;22;20008;-87
2022/04/20 08:32:03;;;;;;;3.13;1.73;;;11.90;44.60;;;;;;6242032;22;20079;-84
2022/04/20 08:35:27;;;;;;;;;;;;;;;;;;;;;
2022/04/20 08:37:53;;;;;;;2.38;1.60;;;11.80;44.30;;;;;;6232245;22;20297;-89
2022/04/20 08:43:13;;;;;;;2.58;1.73;;;12.10;43.90;;;;;;6236744;22;20008;-87
2022/04/20 08:45:44;;;;;;;3.85;2.20;;;12.20;43.80;;;;;;6247646;23;20015;-88
2022/04/20 08:48:18;;;;;;;3.55;2.35;;;12.20;43.00;;;;;;6250766;22;20058;-88
2022/04/20 08:50:51;;;;;;;4.68;2.00;;;12.30;42.90;;;;;;6251172;22;20042;-88
2022/04/20 08:53:37;;;;;;;3.75;1.92;;;12.40;42.80;;;;;;6247997;23;20060;-89
2022/04/20 08:59:13;;;;;;;3.13;2.10;;;12.50;42.90;;;;;;6249910;23;20011;-89
2022/04/20 09:01:45;;;;;;;3.67;1.80;;;12.70;42.30;;;;;;6247852;22;20380;-88
2022/04/20 09:04:13;;;;;;;2.75;2.00;;;12.80;42.80;;;;;;6248610;22;20060;-88
2022/04/20 09:06:44;;;;;;;7.60;2.20;;;13.00;41.30;;;;;;6248126;23;20051;-88
2022/04/20 09:09:10;;;;;;;5.00;2.40;;;13.00;41.60;;;;;;6253918;22;20461;-90
2022/04/20 09:11:43;;;;;;;5.22;2.22;;;12.90;42.80;;;;;;6250818;22;20015;-89
2022/04/20 09:14:17;;;;;;;4.93;2.67;;;13.10;42.60;;;;;;6246703;23;20044;-89
2022/04/20 09:16:43;;;;;;;3.88;2.33;;;12.90;43.20;;;;;;6246101;22;20000;-89
2022/04/20 09:19:10;;;;;;;4.07;2.28;;;13.00;43.30;;;;;;6246253;23;20005;-89
2022/04/20 09:21:39;;;;;;;3.47;2.10;;;13.10;43.70;;;;;;6247419;23;20472;-86
2022/04/20 09:24:09;;;;;;;6.38;2.38;;;13.20;43.50;;;;;;6252644;23;20032;-86
2022/04/20 09:26:51;;;;;;;3.10;1.90;;;13.40;43.60;;;;;;6249403;23;20001;-87
2022/04/20 09:29:17;;;;;;;4.30;2.22;;;13.60;42.30;;;;;;6248928;23;20008;-84
2022/04/20 09:31:50;;;;;;;4.07;1.92;;;13.40;43.30;;;;;;6249594;23;20073;-86
2022/04/20 09:34:25;;;;;;;2.45;1.98;;;13.50;42.60;;;;;;6255689;23;20057;-87
2022/04/20 09:36:54;;;;;;;2.55;1.70;;;13.50;43.10;;;;;;6251950;22;20000;-85
2022/04/20 09:39:20;;;;;;;2.35;1.92;;;13.70;42.20;;;;;;6249693;23;20095;-87
2022/04/20 09:42:02;;;;;;;3.10;1.90;;;13.80;42.40;;;;;;6253000;23;20014;-87
2022/04/20 09:44:39;;;;;;;3.40;1.73;;;13.90;41.50;;;;;;6251431;22;20027;-88
2022/04/20 09:49:58;;;;;;;3.60;1.90;;;14.20;40.50;;;;;;6253676;23;20007;-88
2022/04/20 09:52:43;;;;;;;4.72;2.00;;;14.20;40.60;;;;;;6253436;22;20054;-87
2022/04/20 09:55:14;;;;;;;4.20;2.05;;;14.20;39.90;;;;;;6253214;22;20090;-88
2022/04/20 09:57:40;;;;;;;6.50;1.95;;;14.30;39.20;;;;;;6251442;22;19996;-88
2022/04/20 10:02:46;;;;;;;5.18;1.73;;;14.50;39.90;;;;;;6241665;22;20027;-88
2022/04/20 10:05:11;;;;;;;3.95;1.73;;;14.70;39.80;;;;;;6243497;23;20126;-90
2022/04/20 10:07:37;;;;;;;3.47;1.70;;;15.00;39.00;;;;;;6245134;23;20024;-89
2022/04/20 10:10:04;;;;;;;7.32;2.22;;;15.20;39.70;;;;;;6243027;23;20401;-88
2022/04/20 10:12:33;;;;;;;4.05;2.00;;;15.00;38.40;;;;;;6244523;22;20108;-90
2022/04/20 10:17:49;;;;;;;2.40;1.88;;;14.90;38.50;;;;;;6245059;23;20051;-89
2022/04/20 10:20:14;;;;;;;6.55;2.10;;;15.10;39.10;;;;;;6245589;22;20008;-89
2022/04/20 10:22:42;;;;;;;4.35;2.00;;;15.30;39.00;;;;;;6243668;23;20015;-90
2022/04/20 10:25:09;;;;;;;2.85;1.98;;;15.40;38.80;;;;;;6243181;23;20004;-90
2022/04/20 10:28:03;;;;;;;3.85;2.70;;;15.60;39.10;;;;;;6245239;22;20075;-87
2022/04/20 10:30:59;;;;;;;5.65;2.10;;;16.00;38.10;;;;;;6243581;23;20453;-88
2022/04/20 10:33:30;;;;;;;5.53;2.20;;;15.90;38.20;;;;;;6246383;22;20008;-89
2022/04/20 10:36:11;;;;;;;;;;;15.90;36.10;;;;;;6246338;22;20008;-90
2022/04/20 10:38:47;;;;;;;2.05;1.70;;;16.10;35.20;;;;;;6245800;22;19899;-88
2022/04/20 10:41:18;;;;;;;3.08;1.80;;;16.40;35.20;;;;;;6245494;22;20426;-88
2022/04/20 10:43:46;;;;;;;2.55;1.67;;;16.50;35.70;;;;;;6244482;23;20004;-88
2022/04/20 10:46:19;;;;;;;4.85;2.20;;;16.60;35.80;;;;;;6243892;23;20009;-88
2022/04/20 10:48:51;;;;;;;3.45;2.00;;;16.30;34.90;;;;;;6244426;23;20004;-89
2022/04/20 10:51:19;;;;;;;4.60;1.98;;;16.10;35.50;;;;;;6245246;22;20008;-88
2022/04/20 10:53:48;;;;;;;4.95;1.50;;;16.30;35.60;;;;;;6245911;22;20058;-90
2022/04/20 10:56:14;;;;;;;4.10;1.33;;;16.50;34.90;;;;;;6246856;22;20015;-86
2022/04/20 10:59:05;;;;;;;3.50;1.98;;;16.40;35.00;;;;;;6243801;23;20000;-85
2022/04/20 11:02:03;;;;;;;4.28;1.85;;;16.40;34.60;;;;;;6245650;22;20106;-89
2022/04/20 11:04:39;;;;;;;3.00;1.83;;;16.60;35.20;;;;;;6244030;23;20000;-88
2022/04/20 11:07:07;;;;;;;1.77;1.50;;;16.50;35.00;;;;;;6243696;23;20418;-88
2022/04/20 11:09:58;;;;;;;2.67;2.05;;;16.70;35.30;;;;;;6243293;23;20026;-89
2022/04/20 11:18:38;;;;;;;3.35;2.10;;;16.70;34.60;;;;;;6244164;23;20014;-89
2022/04/20 11:21:07;;;;;;;2.42;1.55;;;16.60;35.00;;;;;;6242842;23;20011;-87
2022/04/20 11:23:48;;;;;;;5.45;2.05;;;16.80;35.60;;;;;;6255794;23;20048;-90
2022/04/20 11:26:23;;;;;;;2.25;1.52;;;16.90;34.70;;;;;;6249985;23;20000;-90
2022/04/20 11:28:49;;;;;;;3.70;1.60;;;17.10;36.40;;;;;;6245223;22;20046;-89
2022/04/20 11:31:16;;;;;;;5.28;2.20;;;17.40;35.60;;;;;;6242864;23;20027;-90
2022/04/20 11:33:42;;;;;;;3.45;1.77;;;17.70;35.20;;;;;;6245749;22;20051;-89
2022/04/20 11:36:15;;;;;;;3.03;1.80;;;17.70;34.80;;;;;;6245731;22;20469;-89
2022/04/20 11:38:43;;;;;;;3.25;1.73;;;17.50;35.00;;;;;;6246774;22;20430;-89
2022/04/20 11:41:13;;;;;;;2.88;1.80;;;17.30;35.00;;;;;;6245973;22;20001;-89
2022/04/20 11:43:42;;;;;;;1.63;1.52;;;17.50;33.30;;;;;;6246614;22;20457;-89
2022/04/20 11:46:15;;;;;;;5.50;1.70;;;17.60;33.80;;;;;;6245915;23;20011;-88
2022/04/20 11:48:54;;;;;;;3.83;1.95;;;17.10;34.10;;;;;;6246933;22;20008;-89
2022/04/20 11:51:28;;;;;;;6.88;1.55;;;17.50;33.50;;;;;;6245191;23;20014;-89
2022/04/20 11:54:07;;;;;;;4.18;1.90;;;17.60;33.70;;;;;;6245975;23;20066;-88
2022/04/20 11:56:39;;;;;;;5.38;2.00;;;17.80;33.60;;;;;;6245684;23;20384;-88
2022/04/20 11:59:08;;;;;;;2.38;1.48;;;18.00;32.40;;;;;;6247761;22;20004;-88
2022/04/20 12:01:48;;;;;;;5.60;2.05;;;18.30;31.90;;;;;;6245817;23;20011;-91
2022/04/20 12:04:27;;;;;;;5.38;1.83;;;18.40;32.40;;;;;;6245875;22;20030;-90
2022/04/20 12:06:56;;;;;;;3.17;2.00;;;18.40;31.50;;;;;;6243211;23;20015;-87
2022/04/20 12:09:31;;;;;;;3.80;1.55;;;18.30;31.30;;;;;;6242833;23;20050;-89
2022/04/20 12:11:59;;;;;;;4.30;1.73;;;18.30;33.10;;;;;;6245363;22;20023;-87
2022/04/20 12:14:34;;;;;;;2.53;1.60;;;18.10;31.00;;;;;;6244880;23;20438;-87
2022/04/20 12:17:47;;;;;;;6.07;2.00;;;18.10;31.80;;;;;;6246912;22;20000;-90
2022/04/20 12:20:53;;;;;;;7.00;2.40;;;18.30;31.30;;;;;;6242842;23;20031;-91
2022/04/20 12:23:21;;;;;;;2.72;1.88;;;17.90;31.30;;;;;;6244503;23;20060;-90
2022/04/20 12:29:14;;;;;;;3.22;1.90;;;17.60;31.80;;;;;;6214855;22;20004;-88
2022/04/20 12:34:53;;;;;;;2.45;1.73;;;17.60;31.50;;;;;;6271700;22;20008;-96
2022/04/20 12:37:28;;;;;;;4.18;1.85;;;17.70;31.60;;;;;;6244367;23;20091;-89
2022/04/20 12:39:55;;;;;;;3.40;1.77;;;17.70;31.70;;;;;;6245032;23;20496;-90
2022/04/20 12:42:21;;;;;;;3.67;1.58;;;17.90;31.20;;;;;;6243875;23;20000;-88
2022/04/20 12:44:52;;;;;;;2.75;1.70;;;17.90;31.90;;;;;;6247175;23;20067;-89
2022/04/20 12:47:22;;;;;;;3.55;1.90;;;18.10;31.10;;;;;;6245150;23;20000;-89
2022/04/20 12:50:11;;;;;;;2.78;1.58;;;18.00;30.60;;;;;;6245458;23;20060;-89
2022/04/20 12:52:37;;;;;;;2.55;1.67;;;17.70;32.30;;;;;;6245343;22;20010;-89
2022/04/20 12:55:16;;;;;;;2.08;1.50;;;17.80;31.90;;;;;;6245222;23;20000;-89
2022/04/20 13:03:45;;;;;;;4.70;2.00;;;18.50;30.10;;;;;;6247144;23;20457;-90
2022/04/20 13:06:17;;;;;;;2.53;1.70;;;18.40;31.40;;;;;;6231645;22;20012;-89
2022/04/20 13:08:46;;;;;;;3.10;1.77;;;18.20;31.30;;;;;;6245457;23;20032;-89
2022/04/20 13:11:16;;;;;;;3.97;1.60;;;18.30;29.90;;;;;;6244066;23;20350;-88
2022/04/20 13:13:42;;;;;;;2.08;1.60;;;18.50;30.90;;;;;;6245063;23;20011;-88
2022/04/20 13:16:10;;;;;;;4.13;1.55;;;18.80;30.40;;;;;;6246678;22;20331;-90
2022/04/20 13:18:37;;;;;;;3.20;1.50;;;19.30;30.10;;;;;;6248517;23;20000;-92
2022/04/20 13:21:03;;;;;;;2.05;1.48;;;19.50;30.00;;;;;;6272298;22;20043;-91
2022/04/20 13:23:29;;;;;;;4.25;1.75;;;19.40;30.10;;;;;;6248068;23;20075;-89
2022/04/20 13:28:39;;;;;;;5.82;1.70;;;19.50;29.80;;;;;;6247031;23;20132;-88
2022/04/20 13:31:06;;;;;;;2.13;1.45;;;19.80;30.10;;;;;;6246637;23;20000;-89
2022/04/20 13:33:31;;;;;;;2.67;1.63;;;20.10;29.70;;;;;;6246479;22;20498;-90
2022/04/20 13:36:00;;;;;;;2.10;1.73;;;20.40;29.70;;;;;;6244766;23;20000;-88
2022/04/20 13:38:26;;;;;;;2.15;1.63;;;20.70;28.90;;;;;;6244989;23;20008;-89
2022/04/20 13:40:52;;;;;;;5.07;2.10;;;20.60;29.50;;;;;;6244195;23;20000;-88
2022/04/20 13:43:18;;;;;;;3.60;1.70;;;20.80;28.70;;;;;;6247045;22;20011;-89
2022/04/20 13:45:44;;;;;;;2.05;1.90;;;20.70;29.60;;;;;;6246507;23;20338;-89
2022/04/20 13:48:10;;;;;;;5.30;1.90;;;21.30;28.60;;;;;;6245363;23;20012;-89
2022/04/20 13:50:36;;;;;;;4.13;1.85;;;21.60;28.90;;;;;;6246582;22;20004;-89
2022/04/20 13:53:02;;;;;;;2.97;1.70;;;21.90;28.70;;;;;;6246605;22;20004;-89
2022/04/20 13:55:28;;;;;;;1.67;1.52;;;22.60;27.70;;;;;;6246393;23;20000;-90
2022/04/20 13:57:53;;;;;;;2.55;1.67;;;23.00;27.50;;;;;;6245061;23;20057;-90
2022/04/20 14:00:22;;;;;;;2.25;1.50;;;23.20;27.50;;;;;;6245618;23;20135;-91
2022/04/20 14:02:47;;;;;;;3.60;2.10;;;23.50;27.50;;;;;;6246699;22;20027;-91
2022/04/20 14:05:14;;;;;;;3.55;1.42;;;23.30;26.80;;;;;;6244920;23;20030;-90
2022/04/20 14:07:40;;;;;;;1.58;1.48;;;23.60;27.00;;;;;;6246212;22;20004;-88
2022/04/20 14:10:09;;;;;;;3.33;2.10;;;23.60;26.40;;;;;;6246021;23;20015;-90
2022/04/20 14:12:35;;;;;;;4.55;2.20;;;23.60;26.30;;;;;;6245781;23;20062;-90
2022/04/20 14:15:01;;;;;;;3.83;1.70;;;23.70;26.80;;;;;;6243636;23;20004;-90
2022/04/20 14:17:27;;;;;;;8.55;2.50;;;23.60;27.10;;;;;;6245687;22;20004;-90
2022/04/20 14:19:54;;;;;;;3.72;1.70;;;23.80;26.90;;;;;;6245422;23;20024;-90
2022/04/20 14:22:19;;;;;;;3.97;2.20;;;23.20;27.40;;;;;;6246433;22;20003;-89
2022/04/20 14:24:46;;;;;;;7.03;2.20;;;23.00;27.50;;;;;;6245444;23;20005;-89
2022/04/20 14:32:41;;;;;;;3.50;1.52;;;24.10;26.60;;;;;;6245283;23;20062;-89
2022/04/20 14:35:12;;;;;;;2.28;1.55;;;24.80;26.80;;;;;;6244301;23;20000;-90
2022/04/20 14:37:37;;;;;;;3.00;2.00;;;24.80;25.40;;;;;;6245964;22;20007;-90
2022/04/20 14:40:04;;;;;;;4.10;1.80;;;24.30;26.40;;;;;;6244563;23;20079;-91
2022/04/20 14:42:56;;;;;;;3.03;2.00;;;23.70;26.50;;;;;;6242957;23;20453;-92
2022/04/20 14:45:27;;;;;;;5.85;2.00;;;24.00;26.60;;;;;;6243878;23;20012;-92
2022/04/20 14:47:55;;;;;;;2.35;1.83;;;24.20;25.80;;;;;;6244739;22;20007;-91
2022/04/20 14:50:30;;;;;;;4.32;1.85;;;24.40;26.20;;;;;;6244224;23;20008;-90
2022/04/20 14:59:34;;;;;;;2.63;2.10;;;24.00;26.70;;;;;;6241474;22;20024;-90
2022/04/20 15:04:51;;;;;;;;;;;;;;;;;;;;;
2022/04/20 15:07:56;;;;;;;5.63;1.77;;;23.80;26.90;;;;;;6244397;22;20079;-90
2022/04/20 15:13:40;;;;;;;2.22;1.90;;;23.20;27.50;;;;;;6245538;22;20027;-92
2022/04/20 15:16:17;;;;;;;2.35;1.75;;;23.50;27.00;;;;;;6257779;22;19992;-91
2022/04/20 15:22:11;;;;;;;3.75;1.83;;;23.30;27.10;;;;;;6221814;22;20003;-91
2022/04/20 15:25:08;;;;;;;3.30;1.92;;;23.20;27.30;;;;;;6246590;22;20516;-92
2022/04/20 15:27:54;;;;;;;6.57;2.53;;;23.00;27.40;;;;;;6244117;23;20083;-91
2022/04/20 15:39:58;;;;;;;2.85;2.08;;;22.70;28.20;;;;;;6246366;23;20046;-91
2022/04/20 16:15:42;;;;;;;;;;;;;;;;;;;;;
2022/04/20 16:18:23;;;;;;;;;;;;;;;;;;;;;
2022/04/20 16:20:50;;;;;;;2.30;1.95;;;22.40;29.40;;;;;;6256170;22;20019;-90
2022/04/20 16:23:16;;;;;;;3.47;2.30;;;22.40;28.50;;;;;;6223009;22;20025;-86
2022/04/20 16:25:42;;;;;;;2.40;2.00;;;22.20;28.80;;;;;;6243679;23;20008;-85
2022/04/20 16:28:08;;;;;;;3.85;2.10;;;21.50;29.10;;;;;;6247479;22;20000;-84
2022/04/20 16:30:35;;;;;;;5.53;2.35;;;21.50;29.30;;;;;;6245271;23;20004;-86
2022/04/20 16:35:39;;;;;;;4.68;2.58;;;22.00;28.20;;;;;;6216941;23;20016;-89
2022/04/20 16:38:39;;;;;;;5.57;2.20;;;22.00;28.80;;;;;;6219978;23;20005;-88
2022/04/20 16:41:44;;;;;;;5.40;2.20;;;22.40;28.60;;;;;;6210073;23;20024;-87
2022/04/20 16:47:33;;;;;;;5.60;2.40;;;22.10;28.90;;;;;;6151349;23;20024;-88
2022/04/20 16:50:00;;;;;;;2.70;1.88;;;22.00;30.00;;;;;;6197459;23;20087;-87
2022/04/20 16:52:27;;;;;;;7.00;2.28;;;21.90;29.20;;;;;;6195490;23;20513;-88
2022/04/20 16:54:53;;;;;;;3.83;2.00;;;22.00;29.00;;;;;;6212000;23;20107;-85
2022/04/20 16:57:32;;;;;;;3.38;1.80;;;21.90;29.40;;;;;;6215502;23;20000;-87
2022/04/20 17:00:09;;;;;;;2.70;1.92;;;21.90;28.90;;;;;;6215653;23;20008;-88
2022/04/20 17:02:41;;;;;;;2.50;2.30;;;21.80;29.30;;;;;;6213046;23;20013;-87
2022/04/20 17:05:08;;;;;;;5.90;2.90;;;22.00;29.50;;;;;;6214861;23;20345;-87
2022/04/20 17:07:34;;;;;;;8.98;3.72;;;21.70;29.50;;;;;;6214218;23;20012;-87
2022/04/20 17:10:00;;;;;;;5.13;2.80;;;21.70;29.80;;;;;;6212668;23;20071;-86
2022/04/20 17:12:25;;;;;;;5.25;2.60;;;21.30;29.70;;;;;;6214616;23;20013;-88
2022/04/20 17:14:56;;;;;;;3.00;2.17;;;21.00;30.00;;;;;;6213753;23;20013;-87
2022/04/20 17:17:22;;;;;;;2.83;2.25;;;21.00;29.90;;;;;;6222630;23;19997;-87
2022/04/20 17:19:48;;;;;;;3.58;2.35;;;21.20;29.80;;;;;;6213972;23;20005;-86
2022/04/20 17:28:14;;;;;;;3.55;2.10;;;21.60;29.50;;;;;;6215885;23;20030;-84
2022/04/20 17:30:55;;;;;;;3.50;2.42;;;21.70;29.60;;;;;;6213115;23;20438;-85
2022/04/20 17:33:25;;;;;;;4.70;2.65;;;21.30;29.80;;;;;;6214076;23;20012;-86
2022/04/20 17:38:34;;;;;;;6.25;2.53;;;21.30;29.60;;;;;;6216097;23;20425;-84
2022/04/20 17:41:00;;;;;;;4.70;2.67;;;21.40;29.50;;;;;;6215887;23;20000;-85
2022/04/20 17:43:26;;;;;;;5.22;2.63;;;21.20;29.70;;;;;;6214846;23;20378;-85
2022/04/20 17:45:53;;;;;;;9.77;2.47;;;21.00;30.00;;;;;;6217099;23;20004;-85
2022/04/20 17:48:22;;;;;;;2.70;2.50;;;21.10;29.90;;;;;;6214244;23;20004;-86
2022/04/20 17:50:55;;;;;;;4.07;2.42;;;21.10;30.00;;;;;;6213918;23;20000;-86
2022/04/20 17:53:27;;;;;;;6.30;2.10;;;21.00;29.90;;;;;;6215434;23;20017;-87
2022/04/20 17:55:56;;;;;;;4.88;2.58;;;21.10;29.90;;;;;;6214944;23;20004;-87
2022/04/20 17:58:22;;;;;;;4.50;2.60;;;20.90;29.90;;;;;;6216303;23;20012;-86
2022/04/20 18:00:48;;;;;;;2.42;2.10;;;20.60;30.00;;;;;;6214654;23;20005;-86
2022/04/20 18:03:35;;;;;;;3.10;2.35;;;20.40;30.50;;;;;;6215977;23;20008;-87
2022/04/20 18:06:12;;;;;;;2.47;2.00;;;20.20;30.70;;;;;;6214892;23;20008;-87
2022/04/20 18:08:38;;;;;;;3.38;2.42;;;19.70;30.90;;;;;;6214337;23;20005;-86
2022/04/20 18:11:07;;;;;;;2.83;2.08;;;19.10;31.70;;;;;;6215728;23;20028;-86
2022/04/20 18:13:36;;;;;;;5.70;1.92;;;18.40;32.70;;;;;;6213553;23;20371;-86
2022/04/20 18:16:04;;;;;;;4.32;2.08;;;17.70;34.10;;;;;;6217617;23;20055;-86
2022/04/20 18:18:34;;;;;;;4.70;2.45;;;17.20;34.60;;;;;;6216396;23;20000;-85
2022/04/20 18:21:01;;;;;;;2.97;2.03;;;16.70;35.50;;;;;;6216924;23;19997;-85
2022/04/20 18:23:36;;;;;;;3.60;1.83;;;16.40;36.00;;;;;;6214731;23;20236;-85
2022/04/20 18:26:02;;;;;;;3.63;2.40;;;16.20;36.70;;;;;;6216192;23;20379;-85
2022/04/20 18:28:36;;;;;;;3.83;2.08;;;16.10;36.90;;;;;;6217545;23;20001;-85
2022/04/20 18:31:02;;;;;;;7.45;2.08;;;15.80;38.20;;;;;;6216077;23;20001;-85
2022/04/20 18:33:30;;;;;;;2.67;2.25;;;15.70;36.90;;;;;;6217264;23;20001;-85
2022/04/20 18:36:06;;;;;;;3.85;2.50;;;15.60;37.30;;;;;;6216002;23;20009;-85
2022/04/20 18:38:35;;;;;;;4.10;2.25;;;15.40;37.80;;;;;;6216993;23;20007;-85